Time,TemperatureF,DewpointF,PressureIn,WindDirection,WindDirectionDegrees,WindSpeedMPH,WindSpeedGustMPH,Humidity,HourlyPrecipIn,Conditions,Clouds,dailyrainin,SoftwareType,DateUTC
2013-02-11 00:00:00,48.9,48.4,30.26,NNE,23,0.0,2.0,98,0.00,,---,0.00,VWS V14.01,2013-02-11 05:00:00,
2013-02-11 00:05:00,49.1,48.6,30.26,South,175,0.0,5.0,98,0.00,,---,0.00,VWS V14.01,2013-02-11 05:05:00,
2013-02-11 00:10:00,49.2,48.7,30.26,West,261,0.0,3.0,98,0.00,,---,0.00,VWS V14.01,2013-02-11 05:10:00,
2013-02-11 00:15:00,49.2,48.7,30.25,NW,323,0.0,1.0,98,0.00,,---,0.00,VWS V14.01,2013-02-11 05:15:00,
2013-02-11 00:20:00,49.4,48.9,30.25,SSE,147,0.0,2.0,98,0.00,,---,0.00,VWS V14.01,2013-02-11 05:20:00,
2013-02-11 00:25:00,49.4,48.9,30.25,East,85,0.0,2.0,98,0.00,,---,0.00,VWS V14.01,2013-02-11 05:25:00,
2013-02-11 00:30:00,49.5,49.0,30.24,ESE,104,0.0,4.0,98,0.00,,---,0.00,VWS V14.01,2013-02-11 05:30:00,
2013-02-11 00:35:00,49.6,49.1,30.24,West,263,0.0,3.0,98,0.00,,---,0.00,VWS V14.01,2013-02-11 05:35:00,
2013-02-11 00:40:00,49.8,49.3,30.24,SSE,161,2.0,2.0,98,0.00,,---,0.00,VWS V14.01,2013-02-11 05:40:00,
2013-02-11 00:45:00,49.9,49.4,30.23,SSE,157,0.0,3.0,98,0.00,,---,0.00,VWS V14.01,2013-02-11 05:45:00,
2013-02-11 00:50:00,50.2,49.7,30.23,SW,231,2.0,5.0,98,0.00,,---,0.00,VWS V14.01,2013-02-11 05:50:00,
2013-02-11 00:55:00,50.4,49.9,30.23,SSE,161,1.0,5.0,98,0.00,,---,0.00,VWS V14.01,2013-02-11 05:55:00,
2013-02-11 01:00:00,50.7,50.2,30.21,ESE,104,2.0,7.0,98,0.00,,---,0.00,VWS V14.01,2013-02-11 06:00:00,
2013-02-11 01:05:00,50.8,50.3,30.21,SW,234,0.0,5.0,98,0.00,,---,0.00,VWS V14.01,2013-02-11 06:05:00,
2013-02-11 01:10:00,51.0,50.5,30.21,SSE,152,0.0,6.0,98,0.00,,---,0.00,VWS V14.01,2013-02-11 06:10:00,
2013-02-11 01:15:00,51.1,50.6,30.21,South,175,1.0,5.0,98,0.00,,---,0.00,VWS V14.01,2013-02-11 06:15:00,
2013-02-11 01:20:00,51.4,50.9,30.21,West,265,0.0,7.0,98,0.00,,---,0.00,VWS V14.01,2013-02-11 06:20:00,
2013-02-11 01:25:00,51.6,51.1,30.21,ESE,121,0.0,6.0,98,0.00,,---,0.00,VWS V14.01,2013-02-11 06:25:00,
2013-02-11 01:30:00,51.9,51.4,30.21,WNW,289,1.0,6.0,98,0.00,,---,0.00,VWS V14.01,2013-02-11 06:30:00,
2013-02-11 01:35:00,52.0,51.5,30.21,South,188,8.0,8.0,98,0.00,,---,0.00,VWS V14.01,2013-02-11 06:35:00,
2013-02-11 01:40:00,52.3,51.8,30.21,SE,130,1.0,7.0,98,0.00,,---,0.00,VWS V14.01,2013-02-11 06:40:00,
2013-02-11 01:45:00,52.5,52.0,30.20,WSW,251,1.0,3.0,98,0.00,,---,0.00,VWS V14.01,2013-02-11 06:45:00,
2013-02-11 01:50:00,52.6,52.0,30.20,South,178,1.0,10.0,98,0.00,,---,0.00,VWS V14.01,2013-02-11 06:50:00,
2013-02-11 01:55:00,52.8,52.2,30.20,East,80,1.0,7.0,98,0.00,,---,0.00,VWS V14.01,2013-02-11 06:55:00,
2013-02-11 02:00:00,52.9,52.3,30.20,West,274,0.0,5.0,98,0.00,,---,0.00,VWS V14.01,2013-02-11 07:00:00,
2013-02-11 02:05:00,53.1,52.5,30.20,South,171,0.0,4.0,98,0.00,,---,0.00,VWS V14.01,2013-02-11 07:05:00,
2013-02-11 02:10:00,53.1,52.5,30.20,SSE,161,0.0,2.0,98,0.00,,---,0.00,VWS V14.01,2013-02-11 07:10:00,
2013-02-11 02:15:00,53.3,52.8,30.20,East,79,0.0,5.0,98,0.00,,---,0.00,VWS V14.01,2013-02-11 07:15:00,
2013-02-11 02:20:00,53.5,53.0,30.20,SSE,168,0.0,6.0,98,0.00,,---,0.00,VWS V14.01,2013-02-11 07:20:00,
2013-02-11 02:25:00,53.6,53.0,30.20,NW,305,0.0,5.0,98,0.00,,---,0.00,VWS V14.01,2013-02-11 07:25:00,
2013-02-11 02:30:00,53.9,53.3,30.18,SSE,155,2.0,6.0,98,0.00,,---,0.00,VWS V14.01,2013-02-11 07:30:00,
2013-02-11 02:35:00,54.1,53.5,30.18,East,100,1.0,7.0,98,0.00,,---,0.00,VWS V14.01,2013-02-11 07:35:00,
2013-02-11 02:40:00,54.2,53.7,30.18,SSE,159,0.0,8.0,98,0.00,,---,0.00,VWS V14.01,2013-02-11 07:40:00,
2013-02-11 02:44:00,54.2,53.7,30.17,SSE,157,2.0,8.0,98,0.00,,---,0.00,VWS V14.01,2013-02-11 07:44:00,
2013-02-11 02:49:00,54.4,53.8,30.17,South,172,0.0,5.0,98,0.00,,---,0.00,VWS V14.01,2013-02-11 07:49:00,
2013-02-11 02:54:00,54.5,54.0,30.17,SSE,168,2.0,3.0,98,0.00,,---,0.00,VWS V14.01,2013-02-11 07:54:00,
2013-02-11 02:59:00,54.7,54.2,30.16,North,11,0.0,11.0,98,0.00,,---,0.00,VWS V14.01,2013-02-11 07:59:00,
2013-02-11 03:04:00,54.7,54.2,30.16,WNW,302,2.0,3.0,98,0.00,,---,0.00,VWS V14.01,2013-02-11 08:04:00,
2013-02-11 03:09:00,54.8,54.2,30.16,WSW,255,0.0,4.0,98,0.00,,---,0.00,VWS V14.01,2013-02-11 08:09:00,
2013-02-11 03:14:00,55.0,54.5,30.15,South,172,0.0,2.0,98,0.00,,---,0.00,VWS V14.01,2013-02-11 08:14:00,
2013-02-11 03:19:00,55.0,54.5,30.15,SSW,203,0.0,5.0,98,0.00,,---,0.00,VWS V14.01,2013-02-11 08:19:00,
2013-02-11 03:24:00,55.1,54.5,30.15,SSE,148,1.0,3.0,98,0.00,,---,0.00,VWS V14.01,2013-02-11 08:24:00,
2013-02-11 03:29:00,55.3,54.8,30.15,South,191,0.0,5.0,98,0.00,,---,0.00,VWS V14.01,2013-02-11 08:29:00,
2013-02-11 03:34:00,55.3,54.8,30.15,SE,137,2.0,4.0,98,0.00,,---,0.00,VWS V14.01,2013-02-11 08:34:00,
2013-02-11 03:39:00,55.6,55.0,30.15,WSW,255,1.0,5.0,98,0.00,,---,0.00,VWS V14.01,2013-02-11 08:39:00,
2013-02-11 03:44:00,55.7,55.2,30.15,SSE,164,4.0,4.0,98,0.00,,---,0.00,VWS V14.01,2013-02-11 08:44:00,
2013-02-11 03:49:00,56.0,55.5,30.15,WNW,294,2.0,5.0,98,0.00,,---,0.00,VWS V14.01,2013-02-11 08:49:00,
2013-02-11 03:54:00,56.2,55.7,30.15,ESE,111,0.0,4.0,98,0.00,,---,0.00,VWS V14.01,2013-02-11 08:54:00,
2013-02-11 03:59:00,56.3,55.8,30.14,West,265,0.0,5.0,98,0.00,,---,0.00,VWS V14.01,2013-02-11 08:59:00,
2013-02-11 04:04:00,56.5,55.9,30.14,NNE,17,0.0,7.0,98,0.00,,---,0.00,VWS V14.01,2013-02-11 09:04:00,
2013-02-11 04:09:00,56.6,56.0,30.14,SSW,196,0.0,9.0,98,0.00,,---,0.00,VWS V14.01,2013-02-11 09:09:00,
2013-02-11 04:14:00,56.6,56.0,30.13,West,267,1.0,5.0,98,0.00,,---,0.00,VWS V14.01,2013-02-11 09:14:00,
2013-02-11 04:19:00,56.9,56.3,30.13,SSE,159,3.0,7.0,98,0.00,,---,0.00,VWS V14.01,2013-02-11 09:19:00,
2013-02-11 04:24:00,56.9,56.3,30.13,SW,234,0.0,7.0,98,0.00,,---,0.00,VWS V14.01,2013-02-11 09:24:00,
2013-02-11 04:29:00,57.0,56.4,30.13,South,171,3.0,8.0,98,0.00,,---,0.00,VWS V14.01,2013-02-11 09:29:00,
2013-02-11 04:34:00,57.0,56.4,30.13,NNW,330,0.0,4.0,98,0.00,,---,0.00,VWS V14.01,2013-02-11 09:34:00,
2013-02-11 04:39:00,57.0,56.4,30.13,SSW,209,0.0,6.0,98,0.00,,---,0.00,VWS V14.01,2013-02-11 09:39:00,
2013-02-11 04:44:00,57.2,56.6,30.14,South,189,0.0,7.0,98,0.00,,---,0.00,VWS V14.01,2013-02-11 09:44:00,
2013-02-11 04:49:00,57.2,56.6,30.14,SSE,155,0.0,2.0,98,0.00,,---,0.00,VWS V14.01,2013-02-11 09:49:00,
2013-02-11 04:54:00,57.2,56.6,30.14,SSE,168,5.0,6.0,98,0.00,,---,0.00,VWS V14.01,2013-02-11 09:54:00,
2013-02-11 04:59:00,57.2,56.6,30.15,South,183,0.0,7.0,98,0.00,,---,0.00,VWS V14.01,2013-02-11 09:59:00,
2013-02-11 05:04:00,57.2,56.6,30.15,North,351,0.0,3.0,98,0.00,,---,0.00,VWS V14.01,2013-02-11 10:04:00,
2013-02-11 05:09:00,57.5,56.9,30.15,SSE,167,0.0,11.0,98,0.00,,---,0.00,VWS V14.01,2013-02-11 10:09:00,
2013-02-11 05:14:00,57.5,56.9,30.15,West,270,5.0,5.0,98,0.00,,---,0.00,VWS V14.01,2013-02-11 10:14:00,
2013-02-11 05:19:00,57.6,57.0,30.15,SSW,203,0.0,5.0,98,0.00,,---,0.00,VWS V14.01,2013-02-11 10:19:00,
2013-02-11 05:24:00,57.6,57.0,30.15,NNW,335,0.0,7.0,98,0.00,,---,0.00,VWS V14.01,2013-02-11 10:24:00,
2013-02-11 05:29:00,57.6,57.0,30.14,South,191,0.0,2.0,98,0.00,,---,0.00,VWS V14.01,2013-02-11 10:29:00,
2013-02-11 05:34:00,57.5,56.9,30.14,East,83,0.0,2.0,98,0.00,,---,0.00,VWS V14.01,2013-02-11 10:34:00,
2013-02-11 05:39:00,57.5,56.9,30.14,South,169,0.0,7.0,98,0.00,,---,0.00,VWS V14.01,2013-02-11 10:39:00,
2013-02-11 05:44:00,57.5,56.9,30.15,ENE,66,0.0,5.0,98,0.00,,---,0.00,VWS V14.01,2013-02-11 10:44:00,
2013-02-11 05:49:00,57.5,56.9,30.15,SSE,151,5.0,8.0,98,0.00,,---,0.00,VWS V14.01,2013-02-11 10:49:00,
2013-02-11 05:54:00,57.3,56.7,30.15,South,172,1.0,4.0,98,0.00,,---,0.00,VWS V14.01,2013-02-11 10:54:00,
2013-02-11 05:59:00,57.3,56.7,30.15,WSW,250,0.0,6.0,98,0.00,,---,0.00,VWS V14.01,2013-02-11 10:59:00,
2013-02-11 06:04:00,57.3,56.7,30.15,WNW,294,0.0,6.0,98,0.00,,---,0.00,VWS V14.01,2013-02-11 11:04:00,
2013-02-11 06:09:00,57.3,56.7,30.15,SSE,155,0.0,3.0,98,0.00,,---,0.00,VWS V14.01,2013-02-11 11:09:00,
2013-02-11 06:14:00,57.3,56.7,30.16,WNW,295,0.0,7.0,98,0.00,,---,0.00,VWS V14.01,2013-02-11 11:14:00,
2013-02-11 06:19:00,57.3,56.7,30.16,WSW,258,0.0,6.0,98,0.00,,---,0.00,VWS V14.01,2013-02-11 11:19:00,
2013-02-11 06:24:00,57.2,56.6,30.16,NNW,333,2.0,2.0,98,0.00,,---,0.00,VWS V14.01,2013-02-11 11:24:00,
2013-02-11 06:29:00,57.0,56.4,30.15,NE,54,0.0,5.0,98,0.00,,---,0.00,VWS V14.01,2013-02-11 11:29:00,
2013-02-11 06:34:00,57.0,56.4,30.15,NNW,346,0.0,5.0,98,0.00,,---,0.00,VWS V14.01,2013-02-11 11:34:00,
2013-02-11 06:39:00,57.0,56.4,30.15,NNE,21,0.0,1.0,98,0.00,,---,0.00,VWS V14.01,2013-02-11 11:39:00,
2013-02-11 06:44:00,56.9,56.3,30.15,South,176,0.0,3.0,98,0.00,,---,0.00,VWS V14.01,2013-02-11 11:44:00,
2013-02-11 06:49:00,56.9,56.3,30.15,SSW,202,0.0,5.0,98,0.00,,---,0.00,VWS V14.01,2013-02-11 11:49:00,
2013-02-11 06:54:00,56.9,56.3,30.15,WSW,258,0.0,3.0,98,0.00,,---,0.00,VWS V14.01,2013-02-11 11:54:00,
2013-02-11 06:59:00,56.7,56.1,30.15,WSW,258,0.0,0.0,98,0.00,,---,0.00,VWS V14.01,2013-02-11 11:59:00,
2013-02-11 07:04:00,56.7,56.1,30.15,WSW,258,0.0,2.0,98,0.00,,---,0.00,VWS V14.01,2013-02-11 12:04:00,
2013-02-11 07:09:00,56.7,56.1,30.15,WNW,291,0.0,1.0,98,0.00,,---,0.00,VWS V14.01,2013-02-11 12:09:00,
2013-02-11 07:14:00,56.6,56.0,30.16,WNW,291,0.0,1.0,98,0.00,,---,0.00,VWS V14.01,2013-02-11 12:14:00,
2013-02-11 07:19:00,56.6,56.0,30.16,WNW,295,1.0,1.0,98,0.00,,---,0.00,VWS V14.01,2013-02-11 12:19:00,
2013-02-11 07:24:00,56.7,56.1,30.16,East,82,0.0,1.0,98,0.00,,---,0.00,VWS V14.01,2013-02-11 12:24:00,
2013-02-11 07:29:00,56.7,56.1,30.15,SE,135,0.0,1.0,98,0.00,,---,0.00,VWS V14.01,2013-02-11 12:29:00,
2013-02-11 07:34:00,56.6,56.0,30.15,South,179,0.0,2.0,98,0.00,,---,0.00,VWS V14.01,2013-02-11 12:34:00,
2013-02-11 07:39:00,56.6,56.0,30.15,South,171,0.0,0.0,98,0.00,,---,0.00,VWS V14.01,2013-02-11 12:39:00,
2013-02-11 07:44:00,56.6,56.0,30.14,South,171,0.0,0.0,98,0.00,,---,0.00,VWS V14.01,2013-02-11 12:44:00,
2013-02-11 07:49:00,56.5,55.9,30.14,NW,318,0.0,4.0,98,0.00,,---,0.00,VWS V14.01,2013-02-11 12:49:00,
2013-02-11 07:54:00,56.5,55.9,30.14,NW,318,0.0,0.0,98,0.00,,---,0.00,VWS V14.01,2013-02-11 12:54:00,
2013-02-11 07:59:00,56.6,56.0,30.14,SSE,155,0.0,2.0,98,0.00,,---,0.00,VWS V14.01,2013-02-11 12:59:00,
2013-02-11 08:04:00,56.6,56.0,30.14,South,169,0.0,0.0,98,0.00,,---,0.00,VWS V14.01,2013-02-11 13:04:00,
2013-02-11 08:09:00,56.6,56.0,30.14,SSE,164,0.0,0.0,98,0.00,,---,0.00,VWS V14.01,2013-02-11 13:09:00,
2013-02-11 08:14:00,56.5,55.9,30.12,ENE,65,0.0,1.0,98,0.00,,---,0.00,VWS V14.01,2013-02-11 13:14:00,
2013-02-11 08:19:00,56.6,56.0,30.12,South,172,0.0,3.0,98,0.00,,---,0.00,VWS V14.01,2013-02-11 13:19:00,
2013-02-11 08:24:00,56.6,56.0,30.12,South,172,0.0,0.0,98,0.00,,---,0.00,VWS V14.01,2013-02-11 13:24:00,
2013-02-11 08:29:00,56.6,56.0,30.14,South,188,0.0,3.0,98,0.00,,---,0.00,VWS V14.01,2013-02-11 13:29:00,
2013-02-11 08:34:00,56.7,56.1,30.14,SW,234,0.0,8.0,98,0.00,,---,0.00,VWS V14.01,2013-02-11 13:34:00,
2013-02-11 08:39:00,56.7,56.1,30.14,ENE,72,0.0,4.0,98,0.00,,---,0.00,VWS V14.01,2013-02-11 13:39:00,
2013-02-11 08:44:00,56.9,56.3,30.13,ESE,103,0.0,6.0,98,0.00,,---,0.00,VWS V14.01,2013-02-11 13:44:00,
2013-02-11 08:49:00,57.0,56.4,30.13,ENE,75,1.0,2.0,98,0.00,,---,0.00,VWS V14.01,2013-02-11 13:49:00,
2013-02-11 08:54:00,57.0,56.4,30.13,SSE,167,0.0,5.0,98,0.00,,---,0.00,VWS V14.01,2013-02-11 13:54:00,
2013-02-11 08:59:00,57.2,56.6,30.14,SSW,199,0.0,5.0,98,0.00,,---,0.00,VWS V14.01,2013-02-11 13:59:00,
2013-02-11 09:04:00,57.0,56.4,30.14,North,357,0.0,2.0,98,0.00,,---,0.00,VWS V14.01,2013-02-11 14:04:00,
2013-02-11 09:09:00,57.2,56.6,30.14,NNW,337,2.0,3.0,98,0.00,,---,0.00,VWS V14.01,2013-02-11 14:09:00,
2013-02-11 09:14:00,57.3,56.7,30.14,WNW,291,0.0,3.0,98,0.00,,---,0.00,VWS V14.01,2013-02-11 14:14:00,
2013-02-11 09:19:00,57.3,56.7,30.14,SSE,167,1.0,3.0,98,0.00,,---,0.00,VWS V14.01,2013-02-11 14:19:00,
2013-02-11 09:24:00,57.5,56.9,30.14,SSE,168,0.0,3.0,98,0.00,,---,0.00,VWS V14.01,2013-02-11 14:24:00,
2013-02-11 09:29:00,57.5,56.9,30.14,SW,236,0.0,2.0,98,0.00,,---,0.00,VWS V14.01,2013-02-11 14:29:00,
2013-02-11 09:34:00,57.5,56.9,30.14,SSE,168,5.0,5.0,98,0.00,,---,0.00,VWS V14.01,2013-02-11 14:34:00,
2013-02-11 09:39:00,57.5,56.9,30.14,WNW,289,0.0,2.0,98,0.00,,---,0.00,VWS V14.01,2013-02-11 14:39:00,
2013-02-11 09:44:00,57.5,56.9,30.13,SSE,150,0.0,5.0,98,0.00,,---,0.00,VWS V14.01,2013-02-11 14:44:00,
2013-02-11 09:49:00,57.6,57.0,30.13,South,175,0.0,4.0,98,0.00,,---,0.00,VWS V14.01,2013-02-11 14:49:00,
2013-02-11 09:54:00,57.5,56.9,30.13,NNW,337,0.0,5.0,98,0.00,,---,0.00,VWS V14.01,2013-02-11 14:54:00,
2013-02-11 09:59:00,57.6,57.0,30.12,WNW,291,0.0,3.0,98,0.00,,---,0.00,VWS V14.01,2013-02-11 14:59:00,
2013-02-11 10:04:00,57.5,56.9,30.12,ENE,78,0.0,0.0,98,0.00,,---,0.00,VWS V14.01,2013-02-11 15:04:00,
2013-02-11 10:09:00,57.8,57.2,30.12,East,85,0.0,3.0,98,0.00,,---,0.00,VWS V14.01,2013-02-11 15:09:00,
2013-02-11 10:14:00,58.0,57.4,30.12,SSW,193,0.0,3.0,98,0.00,,---,0.00,VWS V14.01,2013-02-11 15:14:00,
2013-02-11 10:19:00,58.0,57.4,30.12,West,271,0.0,5.0,98,0.00,,---,0.00,VWS V14.01,2013-02-11 15:19:00,
2013-02-11 10:24:00,58.1,57.5,30.12,SSE,148,0.0,2.0,98,0.00,,---,0.00,VWS V14.01,2013-02-11 15:24:00,
2013-02-11 10:29:00,58.1,57.5,30.12,SSE,148,0.0,0.0,98,0.00,,---,0.00,VWS V14.01,2013-02-11 15:29:00,
2013-02-11 10:34:00,58.3,57.7,30.12,West,281,2.0,5.0,98,0.00,,---,0.00,VWS V14.01,2013-02-11 15:34:00,
2013-02-11 10:39:00,58.3,57.7,30.12,SSW,205,0.0,3.0,98,0.00,,---,0.00,VWS V14.01,2013-02-11 15:39:00,
2013-02-11 10:44:00,58.3,57.7,30.12,WSW,237,0.0,5.0,98,0.00,,---,0.00,VWS V14.01,2013-02-11 15:44:00,
2013-02-11 10:49:00,58.4,57.8,30.12,SW,231,1.0,5.0,98,0.00,,---,0.00,VWS V14.01,2013-02-11 15:49:00,
2013-02-11 10:54:00,58.3,57.7,30.12,WNW,284,0.0,7.0,98,0.00,,---,0.00,VWS V14.01,2013-02-11 15:54:00,
2013-02-11 10:59:00,58.4,57.8,30.10,ESE,109,0.0,3.0,98,0.00,,---,0.00,VWS V14.01,2013-02-11 15:59:00,
2013-02-11 11:04:00,58.6,58.0,30.10,SSE,155,2.0,2.0,98,0.00,,---,0.00,VWS V14.01,2013-02-11 16:04:00,
2013-02-11 11:09:00,58.6,58.0,30.10,SSE,154,0.0,2.0,98,0.00,,---,0.00,VWS V14.01,2013-02-11 16:09:00,
2013-02-11 11:14:00,58.6,58.0,30.10,SSE,161,0.0,3.0,98,0.00,,---,0.00,VWS V14.01,2013-02-11 16:14:00,
2013-02-11 11:19:00,58.6,58.0,30.10,WNW,292,0.0,5.0,98,0.00,,---,0.00,VWS V14.01,2013-02-11 16:19:00,
2013-02-11 11:24:00,58.7,58.1,30.10,South,182,0.0,3.0,98,0.00,,---,0.00,VWS V14.01,2013-02-11 16:24:00,
2013-02-11 11:29:00,58.7,58.1,30.11,WNW,301,0.0,2.0,98,0.00,,---,0.00,VWS V14.01,2013-02-11 16:29:00,
2013-02-11 11:34:00,58.9,58.3,30.11,SSE,162,0.0,6.0,98,0.00,,---,0.00,VWS V14.01,2013-02-11 16:34:00,
2013-02-11 11:39:00,58.9,58.3,30.11,West,265,0.0,1.0,98,0.00,,---,0.00,VWS V14.01,2013-02-11 16:39:00,
2013-02-11 11:44:00,59.0,58.4,30.11,WSW,239,1.0,5.0,98,0.00,,---,0.00,VWS V14.01,2013-02-11 16:44:00,
2013-02-11 11:49:00,59.0,58.4,30.11,WSW,248,0.0,5.0,98,0.00,,---,0.00,VWS V14.01,2013-02-11 16:49:00,
2013-02-11 11:54:00,59.2,58.6,30.11,South,172,2.0,3.0,98,0.00,,---,0.00,VWS V14.01,2013-02-11 16:54:00,
2013-02-11 11:59:00,59.2,58.6,30.10,SSE,164,0.0,3.0,98,0.00,,---,0.00,VWS V14.01,2013-02-11 16:59:00,
2013-02-11 12:04:00,59.2,58.6,30.10,NW,320,1.0,4.0,98,0.00,,---,0.00,VWS V14.01,2013-02-11 17:04:00,
2013-02-11 12:09:00,59.2,58.6,30.10,WSW,250,1.0,7.0,98,0.00,,---,0.00,VWS V14.01,2013-02-11 17:09:00,
2013-02-11 12:14:00,59.3,58.7,30.11,SSE,155,3.0,3.0,98,0.00,,---,0.00,VWS V14.01,2013-02-11 17:14:00,
2013-02-11 12:19:00,59.2,58.6,30.11,NW,309,1.0,5.0,98,0.00,,---,0.00,VWS V14.01,2013-02-11 17:19:00,
2013-02-11 12:24:00,59.3,58.7,30.11,South,172,0.0,1.0,98,0.00,,---,0.00,VWS V14.01,2013-02-11 17:24:00,
2013-02-11 12:29:00,59.5,58.9,30.10,SSE,151,0.0,6.0,98,0.00,,---,0.00,VWS V14.01,2013-02-11 17:29:00,
2013-02-11 12:34:00,59.5,58.9,30.10,West,264,0.0,6.0,98,0.00,,---,0.00,VWS V14.01,2013-02-11 17:34:00,
2013-02-11 12:39:00,59.5,58.9,30.10,SSW,205,0.0,4.0,98,0.00,,---,0.00,VWS V14.01,2013-02-11 17:39:00,
2013-02-11 12:44:00,59.5,58.9,30.09,ENE,71,0.0,4.0,98,0.00,,---,0.00,VWS V14.01,2013-02-11 17:44:00,
2013-02-11 12:49:00,59.6,59.0,30.09,NW,305,2.0,2.0,98,0.00,,---,0.00,VWS V14.01,2013-02-11 17:49:00,
2013-02-11 12:54:00,59.8,59.2,30.09,NW,318,0.0,7.0,98,0.00,,---,0.00,VWS V14.01,2013-02-11 17:54:00,
2013-02-11 12:59:00,59.8,59.2,30.08,NW,308,0.0,3.0,98,0.00,,---,0.00,VWS V14.01,2013-02-11 17:59:00,
2013-02-11 13:04:00,59.9,59.3,30.08,WNW,288,0.0,3.0,98,0.00,,---,0.00,VWS V14.01,2013-02-11 18:04:00,
2013-02-11 13:09:00,59.8,59.2,30.08,NNE,31,1.0,2.0,98,0.00,,---,0.00,VWS V14.01,2013-02-11 18:09:00,
2013-02-11 13:14:00,59.9,59.3,30.07,WNW,287,0.0,1.0,98,0.00,,---,0.00,VWS V14.01,2013-02-11 18:14:00,
2013-02-11 13:19:00,59.9,59.3,30.07,WNW,288,0.0,5.0,98,0.00,,---,0.00,VWS V14.01,2013-02-11 18:19:00,
2013-02-11 13:24:00,59.9,59.3,30.07,WSW,240,0.0,3.0,98,0.00,,---,0.00,VWS V14.01,2013-02-11 18:24:00,
2013-02-11 13:29:00,60.1,59.5,30.07,West,272,0.0,3.0,98,0.00,,---,0.00,VWS V14.01,2013-02-11 18:29:00,
2013-02-11 13:34:00,60.1,59.5,30.07,WNW,288,0.0,7.0,98,0.00,,---,0.00,VWS V14.01,2013-02-11 18:34:00,
2013-02-11 13:39:00,60.1,59.5,30.07,WNW,294,0.0,4.0,98,0.00,,---,0.00,VWS V14.01,2013-02-11 18:39:00,
2013-02-11 13:44:00,60.2,59.6,30.06,South,175,0.0,5.0,98,0.00,,---,0.00,VWS V14.01,2013-02-11 18:44:00,
2013-02-11 13:49:00,60.4,59.8,30.06,West,264,2.0,7.0,98,0.00,,---,0.00,VWS V14.01,2013-02-11 18:49:00,
2013-02-11 13:54:00,60.7,60.1,30.06,SSW,192,0.0,5.0,98,0.00,,---,0.00,VWS V14.01,2013-02-11 18:54:00,
2013-02-11 13:59:00,60.9,60.3,30.06,South,178,3.0,5.0,98,0.00,,---,0.00,VWS V14.01,2013-02-11 18:59:00,
2013-02-11 14:04:00,61.0,60.4,30.06,WSW,251,0.0,5.0,98,0.00,,---,0.00,VWS V14.01,2013-02-11 19:04:00,
2013-02-11 14:09:00,61.0,60.4,30.06,West,279,0.0,4.0,98,0.00,,---,0.00,VWS V14.01,2013-02-11 19:09:00,
2013-02-11 14:14:00,61.2,60.6,30.05,West,279,0.0,8.0,98,0.00,,---,0.00,VWS V14.01,2013-02-11 19:14:00,
2013-02-11 14:19:00,61.3,60.7,30.05,East,79,4.0,8.0,98,0.00,,---,0.00,VWS V14.01,2013-02-11 19:19:00,
2013-02-11 14:24:00,61.6,61.0,30.05,SSW,210,0.0,5.0,98,0.00,,---,0.00,VWS V14.01,2013-02-11 19:24:00,
2013-02-11 14:29:00,61.8,61.2,30.05,West,267,0.0,5.0,98,0.00,,---,0.00,VWS V14.01,2013-02-11 19:29:00,
2013-02-11 14:34:00,61.8,61.2,30.05,WNW,284,0.0,5.0,98,0.00,,---,0.00,VWS V14.01,2013-02-11 19:34:00,
2013-02-11 14:39:00,62.0,61.4,30.05,NW,311,0.0,12.0,98,0.00,,---,0.00,VWS V14.01,2013-02-11 19:39:00,
2013-02-11 14:44:00,62.0,61.4,30.07,SW,233,5.0,7.0,98,0.00,,---,0.00,VWS V14.01,2013-02-11 19:44:00,
2013-02-11 14:49:00,62.0,61.4,30.07,SSW,195,3.0,5.0,98,0.00,,---,0.00,VWS V14.01,2013-02-11 19:49:00,
2013-02-11 14:54:00,62.0,61.4,30.07,East,99,2.0,7.0,98,0.00,,---,0.00,VWS V14.01,2013-02-11 19:54:00,
2013-02-11 14:59:00,62.1,61.5,30.05,WSW,255,1.0,6.0,98,0.00,,---,0.00,VWS V14.01,2013-02-11 19:59:00,
2013-02-11 15:04:00,62.1,61.5,30.05,SW,224,2.0,6.0,98,0.00,,---,0.00,VWS V14.01,2013-02-11 20:04:00,
2013-02-11 15:09:00,62.0,61.4,30.05,NW,319,6.0,10.0,98,0.00,,---,0.00,VWS V14.01,2013-02-11 20:09:00,
2013-02-11 15:14:00,61.6,60.7,30.05,SSE,167,3.0,7.0,97,0.00,,---,0.00,VWS V14.01,2013-02-11 20:14:00,
2013-02-11 15:19:00,61.5,60.9,30.05,SSE,159,3.0,10.0,98,0.00,,---,0.00,VWS V14.01,2013-02-11 20:19:00,
2013-02-11 15:24:00,61.3,60.7,30.05,NW,311,1.0,12.0,98,0.00,,---,0.00,VWS V14.01,2013-02-11 20:24:00,
2013-02-11 15:29:00,61.2,60.6,30.03,WSW,240,1.0,8.0,98,0.00,,---,0.00,VWS V14.01,2013-02-11 20:29:00,
2013-02-11 15:34:00,61.2,60.6,30.03,NW,305,1.0,13.0,98,0.00,,---,0.00,VWS V14.01,2013-02-11 20:34:00,
2013-02-11 15:39:00,61.2,60.6,30.03,NW,323,0.0,10.0,98,0.00,,---,0.00,VWS V14.01,2013-02-11 20:39:00,
2013-02-11 15:44:00,61.0,60.4,30.04,South,178,2.0,6.0,98,0.00,,---,0.00,VWS V14.01,2013-02-11 20:44:00,
2013-02-11 15:49:00,61.0,60.4,30.04,ENE,65,2.0,6.0,98,0.00,,---,0.00,VWS V14.01,2013-02-11 20:49:00,
2013-02-11 15:54:00,61.0,60.4,30.04,NNE,15,1.0,5.0,98,0.00,,---,0.00,VWS V14.01,2013-02-11 20:54:00,
2013-02-11 15:59:00,60.9,60.3,30.03,WNW,285,1.0,7.0,98,0.00,,---,0.00,VWS V14.01,2013-02-11 20:59:00,
2013-02-11 16:04:00,60.9,60.3,30.03,South,176,5.0,7.0,98,0.00,,---,0.00,VWS V14.01,2013-02-11 21:04:00,
2013-02-11 16:09:00,60.9,60.3,30.03,WSW,239,0.0,10.0,98,0.00,,---,0.00,VWS V14.01,2013-02-11 21:09:00,
2013-02-11 16:14:00,60.7,59.6,30.03,NW,308,1.0,8.0,96,0.00,,---,0.00,VWS V14.01,2013-02-11 21:14:00,
2013-02-11 16:19:00,60.7,60.1,30.03,WSW,254,3.0,7.0,98,0.00,,---,0.00,VWS V14.01,2013-02-11 21:19:00,
2013-02-11 16:24:00,60.9,60.3,30.03,WSW,247,0.0,5.0,98,0.00,,---,0.00,VWS V14.01,2013-02-11 21:24:00,
2013-02-11 16:29:00,60.9,60.3,30.05,SSE,159,6.0,7.0,98,0.00,,---,0.00,VWS V14.01,2013-02-11 21:29:00,
2013-02-11 16:34:00,60.7,60.1,30.05,SW,231,0.0,5.0,98,0.00,,---,0.00,VWS V14.01,2013-02-11 21:34:00,
2013-02-11 16:39:00,60.5,59.9,30.05,WNW,299,1.0,3.0,98,0.00,,---,0.00,VWS V14.01,2013-02-11 21:39:00,
2013-02-11 16:44:00,60.5,59.9,30.05,NNW,329,1.0,5.0,98,0.00,,---,0.00,VWS V14.01,2013-02-11 21:44:00,
2013-02-11 16:49:00,60.5,59.9,30.05,WNW,296,0.0,8.0,98,0.00,,---,0.00,VWS V14.01,2013-02-11 21:49:00,
2013-02-11 16:54:00,60.5,59.9,30.05,SSE,158,1.0,5.0,98,0.00,,---,0.00,VWS V14.01,2013-02-11 21:54:00,
2013-02-11 16:59:00,60.5,59.9,30.04,West,274,0.0,5.0,98,0.00,,---,0.00,VWS V14.01,2013-02-11 21:59:00,
2013-02-11 17:04:00,60.4,59.8,30.04,WNW,291,0.0,5.0,98,0.00,,---,0.00,VWS V14.01,2013-02-11 22:04:00,
2013-02-11 17:09:00,60.4,59.8,30.04,WSW,239,0.0,7.0,98,0.00,,---,0.00,VWS V14.01,2013-02-11 22:09:00,
2013-02-11 17:14:00,60.2,59.6,30.04,West,264,0.0,3.0,98,0.00,,---,0.00,VWS V14.01,2013-02-11 22:14:00,
2013-02-11 17:19:00,60.4,59.8,30.00,South,185,0.0,3.0,98,0.00,,---,0.00,VWS V14.01,2013-02-11 22:19:00,
2013-02-11 17:24:00,60.4,59.8,30.00,WNW,285,0.0,5.0,98,0.00,,---,0.00,VWS V14.01,2013-02-11 22:24:00,
2013-02-11 17:29:00,60.2,59.6,30.00,NW,311,0.0,1.0,98,0.00,,---,0.00,VWS V14.01,2013-02-11 22:29:00,
2013-02-11 17:34:00,60.2,59.6,30.04,WSW,254,2.0,2.0,98,0.00,,---,0.00,VWS V14.01,2013-02-11 22:34:00,
2013-02-11 17:39:00,60.4,59.8,30.04,WSW,247,0.0,2.0,98,0.00,,---,0.00,VWS V14.01,2013-02-11 22:39:00,
2013-02-11 17:44:00,60.2,59.6,30.04,South,176,0.0,2.0,98,0.00,,---,0.00,VWS V14.01,2013-02-11 22:44:00,
2013-02-11 17:49:00,60.2,59.6,30.05,SSE,154,0.0,2.0,98,0.00,,---,0.00,VWS V14.01,2013-02-11 22:49:00,
2013-02-11 17:54:00,60.2,59.6,30.05,West,267,0.0,3.0,98,0.00,,---,0.00,VWS V14.01,2013-02-11 22:54:00,
2013-02-11 17:59:00,60.2,59.1,30.05,NNE,13,0.0,3.0,96,0.00,,---,0.00,VWS V14.01,2013-02-11 22:59:00,
2013-02-11 18:04:00,60.2,59.3,30.05,SSW,199,0.0,6.0,97,0.00,,---,0.00,VWS V14.01,2013-02-11 23:04:00,
2013-02-11 18:09:00,60.2,59.3,30.05,West,264,0.0,5.0,97,0.00,,---,0.00,VWS V14.01,2013-02-11 23:09:00,
2013-02-11 18:14:00,60.2,59.3,30.05,West,264,0.0,0.0,97,0.00,,---,0.00,VWS V14.01,2013-02-11 23:14:00,
2013-02-11 18:19:00,60.1,59.0,30.05,WNW,298,0.0,2.0,96,0.00,,---,0.00,VWS V14.01,2013-02-11 23:19:00,
2013-02-11 18:24:00,60.1,59.0,30.05,SW,236,0.0,3.0,96,0.00,,---,0.00,VWS V14.01,2013-02-11 23:24:00,
2013-02-11 18:29:00,59.9,58.8,30.05,West,265,0.0,2.0,96,0.00,,---,0.00,VWS V14.01,2013-02-11 23:29:00,
2013-02-11 18:34:00,60.1,58.7,30.05,South,181,0.0,5.0,95,0.00,,---,0.00,VWS V14.01,2013-02-11 23:34:00,
2013-02-11 18:39:00,59.9,58.5,30.05,WSW,253,0.0,2.0,95,0.00,,---,0.00,VWS V14.01,2013-02-11 23:39:00,
2013-02-11 18:44:00,59.9,58.2,30.05,SSW,213,0.0,3.0,94,0.00,,---,0.00,VWS V14.01,2013-02-11 23:44:00,
2013-02-11 18:49:00,59.9,57.9,30.05,WSW,240,0.0,3.0,93,0.00,,---,0.00,VWS V14.01,2013-02-11 23:49:00,
2013-02-11 18:54:00,59.8,58.1,30.05,East,83,0.0,3.0,94,0.00,,---,0.00,VWS V14.01,2013-02-11 23:54:00,
2013-02-11 18:59:00,59.8,58.1,30.05,WSW,237,0.0,2.0,94,0.00,,---,0.00,VWS V14.01,2013-02-11 23:59:00,
2013-02-11 19:04:00,59.6,57.9,30.07,South,189,0.0,2.0,94,0.00,,---,0.00,VWS V14.01,2013-02-12 00:04:00,
2013-02-11 19:09:00,59.6,58.2,30.07,SSE,152,0.0,2.0,95,0.00,,---,0.00,VWS V14.01,2013-02-12 00:09:00,
2013-02-11 19:14:00,59.6,58.2,30.07,SSE,162,0.0,5.0,95,0.00,,---,0.00,VWS V14.01,2013-02-12 00:14:00,
2013-02-11 19:19:00,59.6,57.9,30.07,SSE,154,1.0,3.0,94,0.00,,---,0.00,VWS V14.01,2013-02-12 00:19:00,
2013-02-11 19:24:00,59.6,57.9,30.07,South,171,0.0,2.0,94,0.00,,---,0.00,VWS V14.01,2013-02-12 00:24:00,
2013-02-11 19:29:00,59.5,57.5,30.07,SW,220,0.0,2.0,93,0.00,,---,0.00,VWS V14.01,2013-02-12 00:29:00,
2013-02-11 19:34:00,59.5,57.8,30.05,South,176,2.0,3.0,94,0.00,,---,0.00,VWS V14.01,2013-02-12 00:34:00,
2013-02-11 19:39:00,59.3,57.3,30.05,South,175,2.0,2.0,93,0.00,,---,0.00,VWS V14.01,2013-02-12 00:39:00,
2013-02-11 19:44:00,59.2,57.2,30.05,NW,311,0.0,5.0,93,0.00,,---,0.00,VWS V14.01,2013-02-12 00:44:00,
2013-02-11 19:49:00,59.2,57.2,30.05,SSE,158,0.0,2.0,93,0.00,,---,0.00,VWS V14.01,2013-02-12 00:49:00,
2013-02-11 19:54:00,59.0,57.0,30.05,WNW,284,0.0,4.0,93,0.00,,---,0.00,VWS V14.01,2013-02-12 00:54:00,
2013-02-11 19:59:00,58.9,56.9,30.05,WNW,287,1.0,3.0,93,0.00,,---,0.00,VWS V14.01,2013-02-12 00:59:00,
2013-02-11 20:04:00,58.7,57.0,30.06,SW,222,1.0,2.0,94,0.00,,---,0.00,VWS V14.01,2013-02-12 01:04:00,
2013-02-11 20:09:00,58.6,57.2,30.06,West,279,0.0,3.0,95,0.00,,---,0.00,VWS V14.01,2013-02-12 01:09:00,
2013-02-11 20:14:00,58.4,57.0,30.06,NNW,327,0.0,1.0,95,0.00,,---,0.00,VWS V14.01,2013-02-12 01:14:00,
2013-02-11 20:19:00,58.4,57.0,30.07,WSW,240,0.0,3.0,95,0.00,,---,0.00,VWS V14.01,2013-02-12 01:19:00,
2013-02-11 20:24:00,58.4,57.0,30.07,WSW,258,0.0,2.0,95,0.00,,---,0.00,VWS V14.01,2013-02-12 01:24:00,
2013-02-11 20:29:00,58.3,56.9,30.07,WSW,243,0.0,5.0,95,0.00,,---,0.00,VWS V14.01,2013-02-12 01:29:00,
2013-02-11 20:34:00,58.1,56.7,30.07,SW,220,2.0,2.0,95,0.00,,---,0.00,VWS V14.01,2013-02-12 01:34:00,
2013-02-11 20:39:00,58.1,56.4,30.07,SSE,167,0.0,5.0,94,0.00,,---,0.00,VWS V14.01,2013-02-12 01:39:00,
2013-02-11 20:44:00,58.0,56.3,30.07,South,181,1.0,7.0,94,0.00,,---,0.00,VWS V14.01,2013-02-12 01:44:00,
2013-02-11 20:49:00,57.8,56.1,30.07,SW,220,0.0,5.0,94,0.00,,---,0.00,VWS V14.01,2013-02-12 01:49:00,
2013-02-11 20:54:00,57.6,55.9,30.07,SSW,199,0.0,2.0,94,0.00,,---,0.00,VWS V14.01,2013-02-12 01:54:00,
2013-02-11 20:59:00,57.5,55.8,30.07,West,272,1.0,2.0,94,0.00,,---,0.00,VWS V14.01,2013-02-12 01:59:00,
2013-02-11 21:04:00,57.3,55.6,30.07,SW,220,0.0,3.0,94,0.00,,---,0.00,VWS V14.01,2013-02-12 02:04:00,
2013-02-11 21:09:00,57.2,55.5,30.07,WNW,302,0.0,3.0,94,0.00,,---,0.00,VWS V14.01,2013-02-12 02:09:00,
2013-02-11 21:14:00,57.0,55.0,30.07,WNW,301,0.0,3.0,93,0.00,,---,0.00,VWS V14.01,2013-02-12 02:14:00,
2013-02-11 21:19:00,57.0,55.0,30.07,SW,224,0.0,3.0,93,0.00,,---,0.00,VWS V14.01,2013-02-12 02:19:00,
2013-02-11 21:24:00,56.9,54.9,30.07,WNW,295,0.0,2.0,93,0.00,,---,0.00,VWS V14.01,2013-02-12 02:24:00,
2013-02-11 21:29:00,56.9,54.9,30.07,WSW,253,0.0,4.0,93,0.00,,---,0.00,VWS V14.01,2013-02-12 02:29:00,
2013-02-11 21:34:00,56.7,54.7,30.07,SW,231,0.0,1.0,93,0.00,,---,0.00,VWS V14.01,2013-02-12 02:34:00,
2013-02-11 21:39:00,56.6,54.9,30.07,West,267,0.0,2.0,94,0.00,,---,0.00,VWS V14.01,2013-02-12 02:39:00,
2013-02-11 21:44:00,56.5,54.2,30.07,WNW,285,0.0,3.0,92,0.00,,---,0.00,VWS V14.01,2013-02-12 02:44:00,
2013-02-11 21:49:00,56.3,54.6,30.07,WSW,240,0.0,5.0,94,0.00,,---,0.00,VWS V14.01,2013-02-12 02:49:00,
2013-02-11 21:54:00,56.2,54.8,30.07,SSE,161,0.0,3.0,95,0.00,,---,0.00,VWS V14.01,2013-02-12 02:54:00,
2013-02-11 21:59:00,55.9,54.8,30.07,SW,217,0.0,2.0,96,0.00,,---,0.00,VWS V14.01,2013-02-12 02:59:00,
2013-02-11 22:04:00,55.7,54.6,30.07,WSW,241,0.0,0.0,96,0.00,,---,0.00,VWS V14.01,2013-02-12 03:04:00,
2013-02-11 22:09:00,55.6,54.8,30.07,WSW,250,0.0,0.0,97,0.00,,---,0.00,VWS V14.01,2013-02-12 03:09:00,
2013-02-11 22:14:00,55.4,54.6,30.07,West,270,0.0,3.0,97,0.00,,---,0.00,VWS V14.01,2013-02-12 03:14:00,
2013-02-11 22:19:00,55.3,54.5,30.07,West,275,0.0,2.0,97,0.00,,---,0.00,VWS V14.01,2013-02-12 03:19:00,
2013-02-11 22:24:00,55.1,54.5,30.07,SSW,209,0.0,1.0,98,0.00,,---,0.00,VWS V14.01,2013-02-12 03:24:00,
2013-02-11 22:29:00,55.1,54.5,30.07,West,279,0.0,6.0,98,0.00,,---,0.00,VWS V14.01,2013-02-12 03:29:00,
2013-02-11 22:34:00,55.1,54.5,30.07,SW,227,0.0,2.0,98,0.00,,---,0.00,VWS V14.01,2013-02-12 03:34:00,
2013-02-11 22:39:00,55.0,54.5,30.07,WSW,251,0.0,3.0,98,0.00,,---,0.00,VWS V14.01,2013-02-12 03:39:00,
2013-02-11 22:44:00,55.0,54.5,30.07,SW,224,0.0,1.0,98,0.00,,---,0.00,VWS V14.01,2013-02-12 03:44:00,
2013-02-11 22:49:00,54.7,54.2,30.06,SW,224,0.0,0.0,98,0.00,,---,0.00,VWS V14.01,2013-02-12 03:49:00,
2013-02-11 22:54:00,54.5,54.0,30.06,WSW,239,0.0,1.0,98,0.00,,---,0.00,VWS V14.01,2013-02-12 03:54:00,
2013-02-11 22:59:00,54.4,53.8,30.06,SW,222,0.0,0.0,98,0.00,,---,0.00,VWS V14.01,2013-02-12 03:59:00,
2013-02-11 23:04:00,54.4,53.8,30.05,SSW,209,0.0,0.0,98,0.00,,---,0.00,VWS V14.01,2013-02-12 04:04:00,
2013-02-11 23:09:00,54.4,53.8,30.05,WSW,240,0.0,0.0,98,0.00,,---,0.00,VWS V14.01,2013-02-12 04:09:00,
2013-02-11 23:14:00,54.2,53.7,30.05,WSW,240,0.0,0.0,98,0.00,,---,0.00,VWS V14.01,2013-02-12 04:14:00,
2013-02-11 23:19:00,54.1,53.5,30.06,SW,226,0.0,0.0,98,0.00,,---,0.00,VWS V14.01,2013-02-12 04:19:00,
2013-02-11 23:24:00,54.1,53.5,30.06,SSE,158,3.0,3.0,98,0.00,,---,0.00,VWS V14.01,2013-02-12 04:24:00,
2013-02-11 23:29:00,54.1,53.5,30.06,SSE,167,0.0,0.0,98,0.00,,---,0.00,VWS V14.01,2013-02-12 04:29:00,
2013-02-11 23:34:00,54.1,53.5,30.05,WSW,239,0.0,0.0,98,0.00,,---,0.00,VWS V14.01,2013-02-12 04:34:00,
2013-02-11 23:39:00,53.9,53.3,30.05,WSW,251,0.0,0.0,98,0.00,,---,0.00,VWS V14.01,2013-02-12 04:39:00,
2013-02-11 23:44:00,53.9,53.3,30.05,WSW,251,0.0,1.0,98,0.00,,---,0.00,VWS V14.01,2013-02-12 04:44:00,
2013-02-11 23:49:00,53.8,53.2,30.06,WNW,282,0.0,2.0,98,0.00,,---,0.00,VWS V14.01,2013-02-12 04:49:00,
2013-02-11 23:54:00,53.6,53.0,30.06,WNW,282,0.0,1.0,98,0.00,,---,0.00,VWS V14.01,2013-02-12 04:54:00,
2013-02-11 23:59:00,53.5,53.0,30.06,South,169,0.0,1.0,98,0.00,,---,0.00,VWS V14.01,2013-02-12 04:59:00,